sensor_id;sensor_type;location;lat;lon;timestamp;temperature;humidity
423;DHT22;198;48.752;9.180;2023-08-08T00:01:18;12.70;99.90
423;DHT22;198;48.752;9.180;2023-08-08T00:03:43;12.70;99.90
423;DHT22;198;48.752;9.180;2023-08-08T00:06:09;12.80;99.90
423;DHT22;198;48.752;9.180;2023-08-08T00:08:35;12.80;99.90
423;DHT22;198;48.752;9.180;2023-08-08T00:11:01;12.90;99.90
423;DHT22;198;48.752;9.180;2023-08-08T00:13:26;13.00;99.90
423;DHT22;198;48.752;9.180;2023-08-08T00:15:52;13.10;99.90
423;DHT22;198;48.752;9.180;2023-08-08T00:18:17;13.20;99.90
423;DHT22;198;48.752;9.180;2023-08-08T00:20:43;13.20;99.90
423;DHT22;198;48.752;9.180;2023-08-08T00:23:08;13.30;99.90
423;DHT22;198;48.752;9.180;2023-08-08T00:25:35;13.40;99.90
423;DHT22;198;48.752;9.180;2023-08-08T00:28:01;13.40;99.90
423;DHT22;198;48.752;9.180;2023-08-08T00:30:26;13.50;99.90
423;DHT22;198;48.752;9.180;2023-08-08T00:32:52;13.60;99.90
423;DHT22;198;48.752;9.180;2023-08-08T00:35:17;13.70;99.90
423;DHT22;198;48.752;9.180;2023-08-08T00:37:43;13.70;99.90
423;DHT22;198;48.752;9.180;2023-08-08T00:40:09;13.80;99.90
423;DHT22;198;48.752;9.180;2023-08-08T00:42:35;13.80;99.90
423;DHT22;198;48.752;9.180;2023-08-08T00:45:01;13.80;99.90
423;DHT22;198;48.752;9.180;2023-08-08T00:47:33;13.80;99.90
423;DHT22;198;48.752;9.180;2023-08-08T00:50:00;13.80;99.90
423;DHT22;198;48.752;9.180;2023-08-08T00:52:26;13.70;99.90
423;DHT22;198;48.752;9.180;2023-08-08T00:54:52;13.70;99.90
423;DHT22;198;48.752;9.180;2023-08-08T00:57:18;13.70;99.90
423;DHT22;198;48.752;9.180;2023-08-08T00:59:44;13.70;99.90
423;DHT22;198;48.752;9.180;2023-08-08T01:02:09;13.70;99.90
423;DHT22;198;48.752;9.180;2023-08-08T01:04:35;13.60;99.90
423;DHT22;198;48.752;9.180;2023-08-08T01:09:47;13.50;99.90
423;DHT22;198;48.752;9.180;2023-08-08T01:12:14;13.60;99.90
423;DHT22;198;48.752;9.180;2023-08-08T01:14:42;13.50;99.90
423;DHT22;198;48.752;9.180;2023-08-08T01:17:08;13.50;99.90
423;DHT22;198;48.752;9.180;2023-08-08T01:19:35;13.60;99.90
423;DHT22;198;48.752;9.180;2023-08-08T01:22:03;13.60;99.90
423;DHT22;198;48.752;9.180;2023-08-08T01:24:30;13.60;99.90
423;DHT22;198;48.752;9.180;2023-08-08T01:26:59;13.60;99.90
423;DHT22;198;48.752;9.180;2023-08-08T01:29:24;13.60;99.90
423;DHT22;198;48.752;9.180;2023-08-08T01:31:50;13.60;99.90
423;DHT22;198;48.752;9.180;2023-08-08T01:34:15;13.60;99.90
423;DHT22;198;48.752;9.180;2023-08-08T01:36:48;13.70;99.90
423;DHT22;198;48.752;9.180;2023-08-08T01:39:17;13.70;99.90
423;DHT22;198;48.752;9.180;2023-08-08T01:41:46;13.70;99.90
423;DHT22;198;48.752;9.180;2023-08-08T01:44:12;13.70;99.90
423;DHT22;198;48.752;9.180;2023-08-08T01:46:39;13.70;99.90
423;DHT22;198;48.752;9.180;2023-08-08T01:49:04;13.80;99.90
423;DHT22;198;48.752;9.180;2023-08-08T01:51:30;13.80;99.90
423;DHT22;198;48.752;9.180;2023-08-08T01:53:56;13.70;99.90
423;DHT22;198;48.752;9.180;2023-08-08T01:56:21;13.70;99.90
423;DHT22;198;48.752;9.180;2023-08-08T01:58:47;13.70;99.90
423;DHT22;198;48.752;9.180;2023-08-08T02:01:12;13.80;99.90
423;DHT22;198;48.752;9.180;2023-08-08T02:03:38;13.80;99.90
423;DHT22;198;48.752;9.180;2023-08-08T02:06:03;13.80;99.90
423;DHT22;198;48.752;9.180;2023-08-08T02:08:29;13.80;99.90
423;DHT22;198;48.752;9.180;2023-08-08T02:10:54;13.90;99.90
423;DHT22;198;48.752;9.180;2023-08-08T02:13:20;14.00;99.90
423;DHT22;198;48.752;9.180;2023-08-08T02:15:45;14.00;99.90
423;DHT22;198;48.752;9.180;2023-08-08T02:18:11;14.00;99.90
423;DHT22;198;48.752;9.180;2023-08-08T02:20:37;14.00;99.90
423;DHT22;198;48.752;9.180;2023-08-08T02:23:03;13.90;99.90
423;DHT22;198;48.752;9.180;2023-08-08T02:25:28;13.90;99.90
423;DHT22;198;48.752;9.180;2023-08-08T02:27:56;13.80;99.90
423;DHT22;198;48.752;9.180;2023-08-08T02:30:21;13.70;99.90
423;DHT22;198;48.752;9.180;2023-08-08T02:32:47;13.70;99.90
423;DHT22;198;48.752;9.180;2023-08-08T02:35:12;13.60;99.90
423;DHT22;198;48.752;9.180;2023-08-08T02:37:38;13.60;99.90
423;DHT22;198;48.752;9.180;2023-08-08T02:40:05;13.50;99.90
423;DHT22;198;48.752;9.180;2023-08-08T02:42:31;13.50;99.90
423;DHT22;198;48.752;9.180;2023-08-08T02:44:56;13.50;99.90
423;DHT22;198;48.752;9.180;2023-08-08T02:47:21;13.50;99.90
423;DHT22;198;48.752;9.180;2023-08-08T02:49:47;13.40;99.90
423;DHT22;198;48.752;9.180;2023-08-08T02:52:12;13.40;99.90
423;DHT22;198;48.752;9.180;2023-08-08T02:54:38;13.30;99.90
423;DHT22;198;48.752;9.180;2023-08-08T02:57:04;13.30;99.90
423;DHT22;198;48.752;9.180;2023-08-08T02:59:29;13.30;99.90
423;DHT22;198;48.752;9.180;2023-08-08T03:01:55;13.30;99.90
423;DHT22;198;48.752;9.180;2023-08-08T03:04:20;13.30;99.90
423;DHT22;198;48.752;9.180;2023-08-08T03:06:46;13.20;99.90
423;DHT22;198;48.752;9.180;2023-08-08T03:09:11;13.20;99.90
423;DHT22;198;48.752;9.180;2023-08-08T03:11:37;13.20;99.90
423;DHT22;198;48.752;9.180;2023-08-08T03:14:06;13.10;99.90
423;DHT22;198;48.752;9.180;2023-08-08T03:16:32;13.10;99.90
423;DHT22;198;48.752;9.180;2023-08-08T03:18:57;13.10;99.90
423;DHT22;198;48.752;9.180;2023-08-08T03:21:24;13.00;99.90
423;DHT22;198;48.752;9.180;2023-08-08T03:23:49;13.00;99.90
423;DHT22;198;48.752;9.180;2023-08-08T03:26:14;12.90;99.90
423;DHT22;198;48.752;9.180;2023-08-08T03:28:40;12.80;99.90
423;DHT22;198;48.752;9.180;2023-08-08T03:31:06;12.80;99.90
423;DHT22;198;48.752;9.180;2023-08-08T03:33:32;12.80;99.90
423;DHT22;198;48.752;9.180;2023-08-08T03:35:58;12.80;99.90
423;DHT22;198;48.752;9.180;2023-08-08T03:38:23;12.80;99.90
423;DHT22;198;48.752;9.180;2023-08-08T03:40:49;12.90;99.90
423;DHT22;198;48.752;9.180;2023-08-08T03:43:14;12.90;99.90
423;DHT22;198;48.752;9.180;2023-08-08T03:45:40;13.00;99.90
423;DHT22;198;48.752;9.180;2023-08-08T03:48:06;13.20;99.90
423;DHT22;198;48.752;9.180;2023-08-08T03:50:31;13.30;99.90
423;DHT22;198;48.752;9.180;2023-08-08T03:52:57;13.40;99.90
423;DHT22;198;48.752;9.180;2023-08-08T03:55:23;13.40;99.90
423;DHT22;198;48.752;9.180;2023-08-08T03:57:48;13.50;99.90
423;DHT22;198;48.752;9.180;2023-08-08T04:00:14;13.60;99.90
423;DHT22;198;48.752;9.180;2023-08-08T04:02:39;13.70;99.90
423;DHT22;198;48.752;9.180;2023-08-08T04:05:05;13.70;99.90
423;DHT22;198;48.752;9.180;2023-08-08T04:07:31;13.70;99.90
423;DHT22;198;48.752;9.180;2023-08-08T04:09:56;13.80;99.90
423;DHT22;198;48.752;9.180;2023-08-08T04:12:22;13.80;99.90
423;DHT22;198;48.752;9.180;2023-08-08T04:14:47;13.80;99.90
423;DHT22;198;48.752;9.180;2023-08-08T04:17:13;13.90;99.90
423;DHT22;198;48.752;9.180;2023-08-08T04:19:38;13.80;99.90
423;DHT22;198;48.752;9.180;2023-08-08T04:22:04;13.80;99.90
423;DHT22;198;48.752;9.180;2023-08-08T04:24:29;13.90;99.90
423;DHT22;198;48.752;9.180;2023-08-08T04:26:55;13.80;99.90
423;DHT22;198;48.752;9.180;2023-08-08T04:29:20;13.80;99.90
423;DHT22;198;48.752;9.180;2023-08-08T04:31:46;13.90;99.90
423;DHT22;198;48.752;9.180;2023-08-08T04:34:11;13.90;99.90
423;DHT22;198;48.752;9.180;2023-08-08T04:36:37;13.90;99.90
423;DHT22;198;48.752;9.180;2023-08-08T04:39:02;13.90;99.90
423;DHT22;198;48.752;9.180;2023-08-08T04:41:28;13.90;99.90
423;DHT22;198;48.752;9.180;2023-08-08T04:43:54;13.90;99.90
423;DHT22;198;48.752;9.180;2023-08-08T04:46:19;13.90;99.90
423;DHT22;198;48.752;9.180;2023-08-08T04:48:45;14.00;99.90
423;DHT22;198;48.752;9.180;2023-08-08T04:51:10;14.00;99.90
423;DHT22;198;48.752;9.180;2023-08-08T04:53:36;14.00;99.90
423;DHT22;198;48.752;9.180;2023-08-08T04:56:01;13.90;99.90
423;DHT22;198;48.752;9.180;2023-08-08T04:58:27;13.90;99.90
423;DHT22;198;48.752;9.180;2023-08-08T05:00:52;13.90;99.90
423;DHT22;198;48.752;9.180;2023-08-08T05:03:18;13.90;99.90
423;DHT22;198;48.752;9.180;2023-08-08T05:05:43;14.00;99.90
423;DHT22;198;48.752;9.180;2023-08-08T05:08:13;14.00;99.90
423;DHT22;198;48.752;9.180;2023-08-08T05:10:39;14.00;99.90
423;DHT22;198;48.752;9.180;2023-08-08T05:13:04;14.10;99.90
423;DHT22;198;48.752;9.180;2023-08-08T05:15:30;14.10;99.90
423;DHT22;198;48.752;9.180;2023-08-08T05:17:55;14.20;99.90
423;DHT22;198;48.752;9.180;2023-08-08T05:20:21;14.20;99.90
423;DHT22;198;48.752;9.180;2023-08-08T05:22:47;14.20;99.90
423;DHT22;198;48.752;9.180;2023-08-08T05:25:13;14.10;99.90
423;DHT22;198;48.752;9.180;2023-08-08T05:27:39;14.10;99.90
423;DHT22;198;48.752;9.180;2023-08-08T05:30:05;14.10;99.90
423;DHT22;198;48.752;9.180;2023-08-08T05:32:31;14.10;99.90
423;DHT22;198;48.752;9.180;2023-08-08T05:34:56;14.10;99.90
423;DHT22;198;48.752;9.180;2023-08-08T05:37:23;14.10;99.90
423;DHT22;198;48.752;9.180;2023-08-08T05:39:49;14.10;99.90
423;DHT22;198;48.752;9.180;2023-08-08T05:42:14;14.00;99.90
423;DHT22;198;48.752;9.180;2023-08-08T05:44:40;14.00;99.90
423;DHT22;198;48.752;9.180;2023-08-08T05:47:07;14.00;99.90
423;DHT22;198;48.752;9.180;2023-08-08T05:49:32;14.00;99.90
423;DHT22;198;48.752;9.180;2023-08-08T05:51:58;14.00;99.90
423;DHT22;198;48.752;9.180;2023-08-08T05:54:23;14.10;99.90
423;DHT22;198;48.752;9.180;2023-08-08T05:56:49;14.20;99.90
423;DHT22;198;48.752;9.180;2023-08-08T05:59:14;14.20;99.90
423;DHT22;198;48.752;9.180;2023-08-08T06:01:40;14.30;99.90
423;DHT22;198;48.752;9.180;2023-08-08T06:04:05;14.30;99.90
423;DHT22;198;48.752;9.180;2023-08-08T06:06:31;14.40;99.90
423;DHT22;198;48.752;9.180;2023-08-08T06:08:56;14.40;99.90
423;DHT22;198;48.752;9.180;2023-08-08T06:11:22;14.40;99.90
423;DHT22;198;48.752;9.180;2023-08-08T06:13:48;14.50;99.90
423;DHT22;198;48.752;9.180;2023-08-08T06:16:14;14.70;99.90
423;DHT22;198;48.752;9.180;2023-08-08T06:18:41;14.80;99.90
423;DHT22;198;48.752;9.180;2023-08-08T06:21:06;14.80;99.90
423;DHT22;198;48.752;9.180;2023-08-08T06:23:32;15.00;99.90
423;DHT22;198;48.752;9.180;2023-08-08T06:25:57;15.10;99.90
423;DHT22;198;48.752;9.180;2023-08-08T06:28:23;15.20;99.90
423;DHT22;198;48.752;9.180;2023-08-08T06:30:49;15.40;99.90
423;DHT22;198;48.752;9.180;2023-08-08T06:33:14;15.40;99.90
423;DHT22;198;48.752;9.180;2023-08-08T06:35:40;15.60;99.90
423;DHT22;198;48.752;9.180;2023-08-08T06:38:05;15.70;99.90
423;DHT22;198;48.752;9.180;2023-08-08T06:40:31;15.80;99.90
423;DHT22;198;48.752;9.180;2023-08-08T06:42:57;15.90;99.90
423;DHT22;198;48.752;9.180;2023-08-08T06:45:22;16.00;99.90
423;DHT22;198;48.752;9.180;2023-08-08T06:47:48;16.10;99.90
423;DHT22;198;48.752;9.180;2023-08-08T06:50:14;16.10;99.90
423;DHT22;198;48.752;9.180;2023-08-08T06:52:40;16.10;99.90
423;DHT22;198;48.752;9.180;2023-08-08T06:55:06;16.20;99.90
423;DHT22;198;48.752;9.180;2023-08-08T06:57:33;16.30;99.90
423;DHT22;198;48.752;9.180;2023-08-08T06:59:59;16.30;99.90
423;DHT22;198;48.752;9.180;2023-08-08T07:02:24;16.40;99.90
423;DHT22;198;48.752;9.180;2023-08-08T07:04:50;16.50;99.90
423;DHT22;198;48.752;9.180;2023-08-08T07:07:15;16.70;99.90
423;DHT22;198;48.752;9.180;2023-08-08T07:09:41;16.80;99.90
423;DHT22;198;48.752;9.180;2023-08-08T07:12:07;16.90;99.90
423;DHT22;198;48.752;9.180;2023-08-08T07:14:33;17.00;99.90
423;DHT22;198;48.752;9.180;2023-08-08T07:16:58;17.10;99.90
423;DHT22;198;48.752;9.180;2023-08-08T07:19:24;17.20;99.90
423;DHT22;198;48.752;9.180;2023-08-08T07:21:49;17.20;99.90
423;DHT22;198;48.752;9.180;2023-08-08T07:24:16;17.40;99.90
423;DHT22;198;48.752;9.180;2023-08-08T07:26:41;17.50;99.90
423;DHT22;198;48.752;9.180;2023-08-08T07:29:07;17.60;99.90
423;DHT22;198;48.752;9.180;2023-08-08T07:31:32;17.70;99.90
423;DHT22;198;48.752;9.180;2023-08-08T07:33:58;17.70;99.90
423;DHT22;198;48.752;9.180;2023-08-08T07:36:24;17.70;99.90
423;DHT22;198;48.752;9.180;2023-08-08T07:38:49;17.70;99.90
423;DHT22;198;48.752;9.180;2023-08-08T07:41:15;17.80;99.90
423;DHT22;198;48.752;9.180;2023-08-08T07:43:40;17.90;99.90
423;DHT22;198;48.752;9.180;2023-08-08T07:46:06;18.10;99.90
423;DHT22;198;48.752;9.180;2023-08-08T07:48:31;18.20;99.40
423;DHT22;198;48.752;9.180;2023-08-08T07:50:57;18.40;98.00
423;DHT22;198;48.752;9.180;2023-08-08T07:53:23;18.70;95.90
423;DHT22;198;48.752;9.180;2023-08-08T07:55:49;19.10;95.40
423;DHT22;198;48.752;9.180;2023-08-08T07:58:14;19.50;94.00
423;DHT22;198;48.752;9.180;2023-08-08T08:00:40;19.70;92.00
423;DHT22;198;48.752;9.180;2023-08-08T08:03:06;20.00;91.10
423;DHT22;198;48.752;9.180;2023-08-08T08:05:32;20.30;86.60
423;DHT22;198;48.752;9.180;2023-08-08T08:07:59;20.40;83.60
423;DHT22;198;48.752;9.180;2023-08-08T08:10:25;20.60;83.20
423;DHT22;198;48.752;9.180;2023-08-08T08:12:50;20.70;78.90
423;DHT22;198;48.752;9.180;2023-08-08T08:15:23;20.60;77.60
423;DHT22;198;48.752;9.180;2023-08-08T08:17:48;20.70;77.10
423;DHT22;198;48.752;9.180;2023-08-08T08:20:14;20.90;76.30
423;DHT22;198;48.752;9.180;2023-08-08T08:22:39;20.90;74.10
423;DHT22;198;48.752;9.180;2023-08-08T08:25:06;21.10;74.30
423;DHT22;198;48.752;9.180;2023-08-08T08:27:35;21.20;72.00
423;DHT22;198;48.752;9.180;2023-08-08T08:30:03;21.30;71.60
423;DHT22;198;48.752;9.180;2023-08-08T08:32:32;21.20;70.00
423;DHT22;198;48.752;9.180;2023-08-08T08:34:57;21.20;69.70
423;DHT22;198;48.752;9.180;2023-08-08T08:37:23;21.20;70.80
423;DHT22;198;48.752;9.180;2023-08-08T08:39:48;21.10;69.80
423;DHT22;198;48.752;9.180;2023-08-08T08:42:15;21.10;70.50
423;DHT22;198;48.752;9.180;2023-08-08T08:44:40;21.30;70.70
423;DHT22;198;48.752;9.180;2023-08-08T08:47:08;21.60;70.60
423;DHT22;198;48.752;9.180;2023-08-08T08:49:38;21.90;69.20
423;DHT22;198;48.752;9.180;2023-08-08T08:52:04;22.00;67.60
423;DHT22;198;48.752;9.180;2023-08-08T08:54:31;22.00;67.10
423;DHT22;198;48.752;9.180;2023-08-08T08:56:57;22.00;63.10
423;DHT22;198;48.752;9.180;2023-08-08T08:59:24;22.00;64.60
423;DHT22;198;48.752;9.180;2023-08-08T09:01:51;22.10;65.60
423;DHT22;198;48.752;9.180;2023-08-08T09:04:18;22.40;64.90
423;DHT22;198;48.752;9.180;2023-08-08T09:06:46;22.50;62.60
423;DHT22;198;48.752;9.180;2023-08-08T09:09:12;22.50;59.80
423;DHT22;198;48.752;9.180;2023-08-08T09:11:38;22.70;60.80
423;DHT22;198;48.752;9.180;2023-08-08T09:14:18;22.90;59.70
423;DHT22;198;48.752;9.180;2023-08-08T09:16:45;23.00;59.20
423;DHT22;198;48.752;9.180;2023-08-08T09:19:11;22.90;59.50
423;DHT22;198;48.752;9.180;2023-08-08T09:21:37;23.00;59.10
423;DHT22;198;48.752;9.180;2023-08-08T09:24:03;23.30;58.70
423;DHT22;198;48.752;9.180;2023-08-08T09:26:28;23.40;58.40
423;DHT22;198;48.752;9.180;2023-08-08T09:28:54;23.70;58.50
423;DHT22;198;48.752;9.180;2023-08-08T09:31:19;23.90;55.80
423;DHT22;198;48.752;9.180;2023-08-08T09:33:45;24.20;55.90
423;DHT22;198;48.752;9.180;2023-08-08T09:36:17;24.20;54.40
423;DHT22;198;48.752;9.180;2023-08-08T09:38:44;24.10;54.50
423;DHT22;198;48.752;9.180;2023-08-08T09:41:11;24.10;53.80
423;DHT22;198;48.752;9.180;2023-08-08T09:43:36;24.60;52.70
423;DHT22;198;48.752;9.180;2023-08-08T09:46:02;25.50;51.70
423;DHT22;198;48.752;9.180;2023-08-08T09:48:32;25.70;47.80
423;DHT22;198;48.752;9.180;2023-08-08T09:50:59;25.70;47.80
423;DHT22;198;48.752;9.180;2023-08-08T09:53:28;25.60;48.90
423;DHT22;198;48.752;9.180;2023-08-08T09:55:55;25.90;48.30
423;DHT22;198;48.752;9.180;2023-08-08T09:58:21;26.40;45.90
423;DHT22;198;48.752;9.180;2023-08-08T10:00:49;26.60;45.00
423;DHT22;198;48.752;9.180;2023-08-08T10:03:15;27.30;45.90
423;DHT22;198;48.752;9.180;2023-08-08T10:05:41;28.10;43.20
423;DHT22;198;48.752;9.180;2023-08-08T10:08:06;27.70;43.20
423;DHT22;198;48.752;9.180;2023-08-08T10:10:32;27.10;43.90
423;DHT22;198;48.752;9.180;2023-08-08T10:12:59;27.60;43.20
423;DHT22;198;48.752;9.180;2023-08-08T10:15:27;28.40;41.90
423;DHT22;198;48.752;9.180;2023-08-08T10:17:57;28.00;40.10
423;DHT22;198;48.752;9.180;2023-08-08T10:20:25;29.00;38.70
423;DHT22;198;48.752;9.180;2023-08-08T10:22:53;29.50;38.70
423;DHT22;198;48.752;9.180;2023-08-08T10:25:24;30.10;37.40
423;DHT22;198;48.752;9.180;2023-08-08T10:27:50;30.30;37.50
423;DHT22;198;48.752;9.180;2023-08-08T10:30:15;29.60;36.40
423;DHT22;198;48.752;9.180;2023-08-08T10:32:43;28.50;36.80
423;DHT22;198;48.752;9.180;2023-08-08T10:35:11;28.50;37.80
423;DHT22;198;48.752;9.180;2023-08-08T10:37:37;30.30;37.70
423;DHT22;198;48.752;9.180;2023-08-08T10:40:04;31.80;34.00
423;DHT22;198;48.752;9.180;2023-08-08T10:42:40;30.80;32.60
423;DHT22;198;48.752;9.180;2023-08-08T10:45:13;30.40;33.90
423;DHT22;198;48.752;9.180;2023-08-08T10:47:39;31.50;33.20
423;DHT22;198;48.752;9.180;2023-08-08T10:50:07;32.80;31.90
423;DHT22;198;48.752;9.180;2023-08-08T10:52:37;34.70;29.80
423;DHT22;198;48.752;9.180;2023-08-08T10:55:03;36.50;27.50
423;DHT22;198;48.752;9.180;2023-08-08T10:57:30;37.90;26.30
423;DHT22;198;48.752;9.180;2023-08-08T11:00:16;38.70;24.40
423;DHT22;198;48.752;9.180;2023-08-08T11:02:42;39.00;23.90
423;DHT22;198;48.752;9.180;2023-08-08T11:05:09;37.70;23.10
423;DHT22;198;48.752;9.180;2023-08-08T11:07:35;38.40;24.30
423;DHT22;198;48.752;9.180;2023-08-08T11:10:02;38.00;23.50
423;DHT22;198;48.752;9.180;2023-08-08T11:12:28;35.80;24.90
423;DHT22;198;48.752;9.180;2023-08-08T11:14:54;35.10;25.40
423;DHT22;198;48.752;9.180;2023-08-08T11:17:20;35.50;26.80
423;DHT22;198;48.752;9.180;2023-08-08T11:19:46;37.80;25.30
423;DHT22;198;48.752;9.180;2023-08-08T11:22:11;39.90;23.30
423;DHT22;198;48.752;9.180;2023-08-08T11:24:37;38.50;22.70
423;DHT22;198;48.752;9.180;2023-08-08T11:27:02;38.90;23.70
423;DHT22;198;48.752;9.180;2023-08-08T11:29:28;40.80;22.50
423;DHT22;198;48.752;9.180;2023-08-08T11:31:57;42.60;20.10
423;DHT22;198;48.752;9.180;2023-08-08T11:34:22;42.80;19.20
423;DHT22;198;48.752;9.180;2023-08-08T11:36:48;43.00;18.80
423;DHT22;198;48.752;9.180;2023-08-08T11:39:14;42.00;20.00
423;DHT22;198;48.752;9.180;2023-08-08T11:41:40;41.00;19.30
423;DHT22;198;48.752;9.180;2023-08-08T11:44:06;38.80;20.60
423;DHT22;198;48.752;9.180;2023-08-08T11:46:33;37.90;21.30
423;DHT22;198;48.752;9.180;2023-08-08T11:49:06;38.40;21.60
423;DHT22;198;48.752;9.180;2023-08-08T11:51:33;37.10;22.10
423;DHT22;198;48.752;9.180;2023-08-08T11:54:00;35.60;22.90
423;DHT22;198;48.752;9.180;2023-08-08T11:56:26;34.40;24.10
423;DHT22;198;48.752;9.180;2023-08-08T11:58:52;35.40;23.40
423;DHT22;198;48.752;9.180;2023-08-08T12:01:22;35.50;23.90
423;DHT22;198;48.752;9.180;2023-08-08T12:03:48;37.80;23.00
423;DHT22;198;48.752;9.180;2023-08-08T12:06:17;39.70;21.80
423;DHT22;198;48.752;9.180;2023-08-08T12:08:44;42.50;21.30
423;DHT22;198;48.752;9.180;2023-08-08T12:11:14;42.50;19.70
423;DHT22;198;48.752;9.180;2023-08-08T12:13:44;39.60;20.40
423;DHT22;198;48.752;9.180;2023-08-08T12:16:10;37.20;22.50
423;DHT22;198;48.752;9.180;2023-08-08T12:18:37;38.80;22.20
423;DHT22;198;48.752;9.180;2023-08-08T12:21:04;40.10;21.30
423;DHT22;198;48.752;9.180;2023-08-08T12:23:31;40.80;20.10
423;DHT22;198;48.752;9.180;2023-08-08T12:25:58;41.30;19.70
423;DHT22;198;48.752;9.180;2023-08-08T12:28:23;41.30;19.50
423;DHT22;198;48.752;9.180;2023-08-08T12:30:49;39.40;19.80
423;DHT22;198;48.752;9.180;2023-08-08T12:33:15;38.50;20.50
423;DHT22;198;48.752;9.180;2023-08-08T12:35:40;37.70;21.30
423;DHT22;198;48.752;9.180;2023-08-08T12:38:06;36.50;22.10
423;DHT22;198;48.752;9.180;2023-08-08T12:40:31;37.50;22.90
423;DHT22;198;48.752;9.180;2023-08-08T12:42:57;39.50;22.50
423;DHT22;198;48.752;9.180;2023-08-08T12:45:22;41.20;21.00
423;DHT22;198;48.752;9.180;2023-08-08T12:47:48;42.10;20.50
423;DHT22;198;48.752;9.180;2023-08-08T12:50:13;42.20;19.80
423;DHT22;198;48.752;9.180;2023-08-08T12:52:40;42.10;20.10
423;DHT22;198;48.752;9.180;2023-08-08T12:55:06;42.60;20.20
423;DHT22;198;48.752;9.180;2023-08-08T12:57:32;43.40;20.60
423;DHT22;198;48.752;9.180;2023-08-08T12:59:58;44.70;19.20
423;DHT22;198;48.752;9.180;2023-08-08T13:02:24;44.30;18.90
423;DHT22;198;48.752;9.180;2023-08-08T13:04:49;43.30;19.50
423;DHT22;198;48.752;9.180;2023-08-08T13:07:15;43.10;19.70
423;DHT22;198;48.752;9.180;2023-08-08T13:09:40;40.80;19.50
423;DHT22;198;48.752;9.180;2023-08-08T13:12:06;38.20;20.80
423;DHT22;198;48.752;9.180;2023-08-08T13:14:32;35.80;22.00
423;DHT22;198;48.752;9.180;2023-08-08T13:16:58;33.80;24.00
423;DHT22;198;48.752;9.180;2023-08-08T13:19:24;32.00;25.40
423;DHT22;198;48.752;9.180;2023-08-08T13:21:51;30.40;26.90
423;DHT22;198;48.752;9.180;2023-08-08T13:24:17;28.90;28.70
423;DHT22;198;48.752;9.180;2023-08-08T13:26:43;27.60;30.10
423;DHT22;198;48.752;9.180;2023-08-08T13:29:08;26.90;31.90
423;DHT22;198;48.752;9.180;2023-08-08T13:31:34;27.10;31.90
423;DHT22;198;48.752;9.180;2023-08-08T13:34:00;27.20;32.20
423;DHT22;198;48.752;9.180;2023-08-08T13:36:25;27.40;32.40
423;DHT22;198;48.752;9.180;2023-08-08T13:38:51;29.40;32.40
423;DHT22;198;48.752;9.180;2023-08-08T13:41:16;34.00;28.30
423;DHT22;198;48.752;9.180;2023-08-08T13:43:42;37.60;25.20
423;DHT22;198;48.752;9.180;2023-08-08T13:46:07;40.30;23.10
423;DHT22;198;48.752;9.180;2023-08-08T13:48:35;40.90;21.30
423;DHT22;198;48.752;9.180;2023-08-08T13:51:01;40.20;21.80
423;DHT22;198;48.752;9.180;2023-08-08T13:53:27;42.10;21.30
423;DHT22;198;48.752;9.180;2023-08-08T13:55:52;42.50;20.50
423;DHT22;198;48.752;9.180;2023-08-08T13:58:18;42.10;20.20
423;DHT22;198;48.752;9.180;2023-08-08T14:00:47;42.00;20.90
423;DHT22;198;48.752;9.180;2023-08-08T14:03:13;43.20;19.80
423;DHT22;198;48.752;9.180;2023-08-08T14:05:38;43.20;19.10
423;DHT22;198;48.752;9.180;2023-08-08T14:08:04;42.30;19.70
423;DHT22;198;48.752;9.180;2023-08-08T14:10:30;41.10;20.20
423;DHT22;198;48.752;9.180;2023-08-08T14:12:56;40.00;21.20
423;DHT22;198;48.752;9.180;2023-08-08T14:15:21;40.10;21.20
423;DHT22;198;48.752;9.180;2023-08-08T14:17:47;40.90;20.70
423;DHT22;198;48.752;9.180;2023-08-08T14:20:12;40.50;20.50
423;DHT22;198;48.752;9.180;2023-08-08T14:22:38;38.70;21.60
423;DHT22;198;48.752;9.180;2023-08-08T14:25:04;36.40;22.90
423;DHT22;198;48.752;9.180;2023-08-08T14:27:31;34.50;24.50
423;DHT22;198;48.752;9.180;2023-08-08T14:29:57;32.70;26.10
423;DHT22;198;48.752;9.180;2023-08-08T14:32:23;30.90;27.40
423;DHT22;198;48.752;9.180;2023-08-08T14:34:48;29.60;28.50
423;DHT22;198;48.752;9.180;2023-08-08T14:37:14;28.40;30.00
423;DHT22;198;48.752;9.180;2023-08-08T14:39:39;27.50;31.60
423;DHT22;198;48.752;9.180;2023-08-08T14:42:05;26.70;33.20
423;DHT22;198;48.752;9.180;2023-08-08T14:44:30;26.00;34.00
423;DHT22;198;48.752;9.180;2023-08-08T14:46:56;25.60;35.50
423;DHT22;198;48.752;9.180;2023-08-08T14:49:21;25.60;35.50
423;DHT22;198;48.752;9.180;2023-08-08T14:51:48;25.60;35.20
423;DHT22;198;48.752;9.180;2023-08-08T14:54:13;25.40;35.20
423;DHT22;198;48.752;9.180;2023-08-08T14:56:39;25.60;36.00
423;DHT22;198;48.752;9.180;2023-08-08T14:59:04;26.10;35.30
423;DHT22;198;48.752;9.180;2023-08-08T15:01:30;25.90;35.50
423;DHT22;198;48.752;9.180;2023-08-08T15:03:57;25.90;35.80
423;DHT22;198;48.752;9.180;2023-08-08T15:06:23;26.40;35.40
423;DHT22;198;48.752;9.180;2023-08-08T15:08:48;26.60;34.40
423;DHT22;198;48.752;9.180;2023-08-08T15:11:15;26.40;33.80
423;DHT22;198;48.752;9.180;2023-08-08T15:13:41;25.90;34.50
423;DHT22;198;48.752;9.180;2023-08-08T15:16:07;25.20;35.50
423;DHT22;198;48.752;9.180;2023-08-08T15:18:33;24.70;36.90
423;DHT22;198;48.752;9.180;2023-08-08T15:20:59;24.30;37.70
423;DHT22;198;48.752;9.180;2023-08-08T15:23:24;24.30;38.40
423;DHT22;198;48.752;9.180;2023-08-08T15:25:50;24.30;38.70
423;DHT22;198;48.752;9.180;2023-08-08T15:28:15;26.20;37.40
423;DHT22;198;48.752;9.180;2023-08-08T15:30:41;29.20;33.50
423;DHT22;198;48.752;9.180;2023-08-08T15:33:06;30.60;31.30
423;DHT22;198;48.752;9.180;2023-08-08T15:35:32;32.50;30.40
423;DHT22;198;48.752;9.180;2023-08-08T15:37:57;33.60;28.50
423;DHT22;198;48.752;9.180;2023-08-08T15:40:24;32.70;28.10
423;DHT22;198;48.752;9.180;2023-08-08T15:42:50;31.00;28.90
423;DHT22;198;48.752;9.180;2023-08-08T15:45:16;29.50;30.30
423;DHT22;198;48.752;9.180;2023-08-08T15:47:42;28.20;31.90
423;DHT22;198;48.752;9.180;2023-08-08T15:50:08;27.20;33.60
423;DHT22;198;48.752;9.180;2023-08-08T15:52:35;26.20;35.10
423;DHT22;198;48.752;9.180;2023-08-08T15:55:02;25.50;36.50
423;DHT22;198;48.752;9.180;2023-08-08T15:57:29;24.80;37.60
423;DHT22;198;48.752;9.180;2023-08-08T15:59:55;24.40;38.40
423;DHT22;198;48.752;9.180;2023-08-08T16:02:20;24.20;39.10
423;DHT22;198;48.752;9.180;2023-08-08T16:04:46;24.20;39.40
423;DHT22;198;48.752;9.180;2023-08-08T16:07:12;24.10;40.00
423;DHT22;198;48.752;9.180;2023-08-08T16:09:44;23.90;40.10
423;DHT22;198;48.752;9.180;2023-08-08T16:12:09;23.70;40.60
423;DHT22;198;48.752;9.180;2023-08-08T16:14:35;23.60;41.00
423;DHT22;198;48.752;9.180;2023-08-08T16:17:01;23.80;41.20
423;DHT22;198;48.752;9.180;2023-08-08T16:19:28;24.10;40.50
423;DHT22;198;48.752;9.180;2023-08-08T16:21:53;24.90;39.30
423;DHT22;198;48.752;9.180;2023-08-08T16:24:19;25.30;39.40
423;DHT22;198;48.752;9.180;2023-08-08T16:26:44;25.60;38.10
423;DHT22;198;48.752;9.180;2023-08-08T16:29:10;26.20;37.10